createdAt,value
2023-05-08T00:00:17.446Z,101835.41
2023-05-08T00:02:44.298Z,101836.28
2023-05-08T00:05:11.186Z,101836.28
2023-05-08T00:07:38.303Z,101830.97
2023-05-08T00:10:07.201Z,101829.16
2023-05-08T00:12:33.978Z,101831.81
2023-05-08T00:15:01.049Z,101835.38
2023-05-08T00:17:27.886Z,101839.78
2023-05-08T00:19:54.708Z,101830.91
2023-05-08T00:22:23.665Z,101838.91
2023-05-08T00:24:50.538Z,101839.75
2023-05-08T00:27:17.304Z,101833.53
2023-05-08T00:29:44.145Z,101830.88
2023-05-08T00:32:11.313Z,101833.53
2023-05-08T00:34:38.158Z,101828.19
2023-05-08T00:37:04.990Z,101833.50
2023-05-08T00:39:31.970Z,101829.91
2023-05-08T00:41:58.771Z,101835.25
2023-05-08T00:44:25.534Z,101837.00
2023-05-08T00:46:52.433Z,101837.03
2023-05-08T00:49:19.558Z,101840.56
2023-05-08T00:51:48.046Z,101838.78
2023-05-08T00:54:15.358Z,101838.78
2023-05-08T00:56:42.880Z,101840.53
2023-05-08T00:59:14.102Z,101834.31
2023-05-08T01:01:42.224Z,101832.50
2023-05-08T01:04:09.189Z,101834.28
2023-05-08T01:06:39.009Z,101835.16
2023-05-08T01:09:06.707Z,101828.06
2023-05-08T01:11:48.167Z,101834.25
2023-05-08T01:14:26.432Z,101830.69
2023-05-08T01:17:11.238Z,101825.34
2023-05-08T01:20:04.385Z,101827.09
2023-05-08T01:23:01.375Z,101833.28
2023-05-08T01:26:19.822Z,101827.06
2023-05-08T01:29:01.275Z,101830.59
2023-05-08T01:31:35.775Z,101829.69
2023-05-08T01:34:08.926Z,101831.47
2023-05-08T01:36:57.299Z,101822.59
2023-05-08T01:39:37.666Z,101818.13
2023-05-08T01:42:28.737Z,101826.97
2023-05-08T01:45:01.643Z,101826.09
2023-05-08T01:47:33.574Z,101826.09
2023-05-08T01:50:18.513Z,101820.75
2023-05-08T01:53:05.497Z,101828.75
2023-05-08T01:55:37.529Z,101821.63
2023-05-08T01:58:11.041Z,101824.28
2023-05-08T02:00:40.882Z,101827.81
2023-05-08T02:03:09.604Z,101822.44
2023-05-08T02:05:38.438Z,101826.84
2023-05-08T02:08:08.456Z,101823.28
2023-05-08T02:10:37.256Z,101831.28
2023-05-08T02:13:05.262Z,101827.72
2023-05-08T02:15:36.517Z,101819.72
2023-05-08T02:18:07.592Z,101820.59
2023-05-08T02:20:34.589Z,101822.31
2023-05-08T02:23:02.775Z,101817.00
2023-05-08T02:25:31.180Z,101819.63
2023-05-08T02:27:59.108Z,101815.19
2023-05-08T02:30:27.131Z,101818.69
2023-05-08T02:32:57.564Z,101814.25
2023-05-08T02:35:28.239Z,101817.78
2023-05-08T02:37:57.250Z,101826.63
2023-05-08T02:40:27.999Z,101817.75
2023-05-08T02:42:55.633Z,101824.84
2023-05-08T02:45:27.192Z,101823.03
2023-05-08T02:48:57.331Z,101826.53
2023-05-08T02:51:38.302Z,101823.84
2023-05-08T02:54:22.929Z,101823.84
2023-05-08T02:57:09.176Z,101832.59
2023-05-08T02:59:39.258Z,101830.81
2023-05-08T03:02:25.611Z,101834.38
2023-05-08T03:04:59.309Z,101821.06
2023-05-08T03:07:28.047Z,101824.59
2023-05-08T03:10:06.942Z,101814.84
2023-05-08T03:12:42.169Z,101812.19
2023-05-08T03:15:36.744Z,101816.56
2023-05-08T03:18:10.462Z,101821.00
2023-05-08T03:20:42.934Z,101823.66
2023-05-08T03:23:12.821Z,101820.06
2023-05-08T03:25:42.431Z,101818.28
2023-05-08T03:28:11.295Z,101817.41
2023-05-08T03:30:40.660Z,101817.41
2023-05-08T03:33:08.783Z,101820.06
2023-05-08T03:35:37.475Z,101828.91
2023-05-08T03:38:08.384Z,101822.66
2023-05-08T03:40:36.842Z,101816.47
2023-05-08T03:43:07.836Z,101812.91
2023-05-08T03:45:40.250Z,101812.00
2023-05-08T03:48:09.051Z,101812.00
2023-05-08T03:50:37.807Z,101808.44
2023-05-08T03:53:05.269Z,101813.75
2023-05-08T03:55:32.289Z,101808.41
2023-05-08T03:58:40.270Z,101812.84
2023-05-08T04:01:28.960Z,101807.53
2023-05-08T04:04:16.816Z,101809.25
2023-05-08T04:06:51.209Z,101814.56
2023-05-08T04:09:27.463Z,101803.94
2023-05-08T04:12:05.705Z,101804.81
2023-05-08T04:14:39.207Z,101808.41
2023-05-08T04:17:09.945Z,101809.25
2023-05-08T04:19:45.094Z,101800.41
2023-05-08T04:22:12.858Z,101799.50
2023-05-08T04:24:44.564Z,101816.38
2023-05-08T04:27:12.550Z,101815.47
2023-05-08T04:29:39.735Z,101813.69
2023-05-08T04:32:07.756Z,101819.94
2023-05-08T04:34:35.659Z,101812.88
2023-05-08T04:37:02.684Z,101819.97
2023-05-08T04:39:29.483Z,101818.19
2023-05-08T04:42:02.460Z,101812.00
2023-05-08T04:44:29.663Z,101812.94
2023-05-08T04:46:56.479Z,101820.91
2023-05-08T04:49:23.354Z,101818.28
2023-05-08T04:51:50.163Z,101828.03
2023-05-08T04:54:16.938Z,101825.38
2023-05-08T04:56:43.740Z,101824.56
2023-05-08T04:59:11.557Z,101832.53
2023-05-08T05:01:38.412Z,101827.25
2023-05-08T05:04:05.584Z,101835.28
2023-05-08T05:06:33.568Z,101838.03
2023-05-08T05:09:00.354Z,101840.78
2023-05-08T05:11:27.395Z,101835.56
2023-05-08T05:13:54.144Z,101844.50
2023-05-08T05:16:21.034Z,101844.53
2023-05-08T05:18:47.853Z,101845.44
2023-05-08T05:21:14.630Z,101841.03
2023-05-08T05:23:41.482Z,101847.31
2023-05-08T05:26:08.387Z,101837.59
2023-05-08T05:28:35.170Z,101844.72
2023-05-08T05:31:02.112Z,101844.75
2023-05-08T05:33:29.033Z,101843.00
2023-05-08T05:35:55.811Z,101842.13
2023-05-08T05:38:22.563Z,101837.72
2023-05-08T05:40:49.590Z,101836.84
2023-05-08T05:43:16.418Z,101838.66
2023-05-08T05:45:43.212Z,101843.13
2023-05-08T05:48:10.199Z,101840.50
2023-05-08T05:50:37.921Z,101846.72
2023-05-08T05:53:04.733Z,101847.63
2023-05-08T05:55:31.873Z,101843.22
2023-05-08T05:57:58.677Z,101852.13
2023-05-08T06:00:25.507Z,101852.16
2023-05-08T06:02:52.470Z,101853.97
2023-05-08T06:05:19.632Z,101849.56
2023-05-08T06:07:46.449Z,101844.25
2023-05-08T06:10:13.322Z,101850.47
2023-05-08T06:12:40.477Z,101851.41
2023-05-08T06:15:08.084Z,101844.31
2023-05-08T06:17:34.922Z,101852.31
2023-05-08T06:20:01.722Z,101845.22
2023-05-08T06:22:29.328Z,101840.81
2023-05-08T06:24:57.242Z,101841.69
2023-05-08T06:27:24.093Z,101840.88
2023-05-08T06:29:53.132Z,101848.88
2023-05-08T06:32:21.175Z,101859.53
2023-05-08T06:34:48.630Z,101856.88
2023-05-08T06:37:15.413Z,101861.34
2023-05-08T06:39:42.368Z,101857.81
2023-05-08T06:42:09.382Z,101851.59
2023-05-08T06:44:36.201Z,101856.94
2023-05-08T06:47:03.190Z,101862.28
2023-05-08T06:49:30.026Z,101863.19
2023-05-08T06:51:58.119Z,101864.09
2023-05-08T06:54:25.156Z,101864.97
2023-05-08T06:56:54.105Z,101860.53
2023-05-08T06:59:23.061Z,101856.09
2023-05-08T07:01:50.606Z,101849.88
2023-05-08T07:04:17.463Z,101852.53
2023-05-08T07:06:44.344Z,101852.50
2023-05-08T07:09:14.049Z,101841.88
2023-05-08T07:11:40.865Z,101860.53
2023-05-08T07:14:07.670Z,101860.47
2023-05-08T07:16:34.911Z,101856.78
2023-05-08T07:19:01.840Z,101861.06
2023-05-08T07:21:29.579Z,101854.66
2023-05-08T07:23:56.610Z,101849.22
2023-05-08T07:26:23.454Z,101850.06
2023-05-08T07:28:50.908Z,101850.97
2023-05-08T07:31:17.785Z,101846.56
2023-05-08T07:33:44.628Z,101851.03
2023-05-08T07:36:11.795Z,101848.38
2023-05-08T07:38:38.581Z,101847.53
2023-05-08T07:41:05.921Z,101848.44
2023-05-08T07:43:32.816Z,101851.13
2023-05-08T07:45:59.612Z,101848.47
2023-05-08T07:48:26.704Z,101847.59
2023-05-08T07:50:53.472Z,101849.38
2023-05-08T07:53:20.278Z,101852.91
2023-05-08T07:55:47.059Z,101841.28
2023-05-08T07:58:14.449Z,101839.47
2023-05-08T08:00:41.220Z,101847.44
2023-05-08T08:03:08.102Z,101850.94
2023-05-08T08:05:35.010Z,101849.97
2023-05-08T08:08:01.865Z,101850.81
2023-05-08T08:10:28.866Z,101853.47
2023-05-08T08:12:55.684Z,101857.03
2023-05-08T08:15:22.483Z,101850.78
2023-05-08T08:17:49.342Z,101850.75
2023-05-08T08:20:16.191Z,101848.97
2023-05-08T08:22:42.998Z,101852.50
2023-05-08T08:25:10.148Z,101854.22
2023-05-08T08:27:37.129Z,101851.53
2023-05-08T08:30:15.820Z,101846.13
2023-05-08T08:32:44.493Z,101841.59
2023-05-08T08:35:12.032Z,101849.53
2023-05-08T08:37:39.086Z,101846.81
2023-05-08T08:40:07.497Z,101844.06
2023-05-08T08:42:34.716Z,101839.53
2023-05-08T08:45:03.458Z,101835.88
2023-05-08T08:47:41.147Z,101835.78
2023-05-08T08:50:11.983Z,101843.78
2023-05-08T08:52:49.004Z,101826.75
2023-05-08T08:55:18.437Z,101827.63
2023-05-08T08:58:18.019Z,101832.00
2023-05-08T09:00:45.330Z,101825.72
2023-05-08T09:03:12.435Z,101822.94
2023-05-08T09:05:40.032Z,101826.44
2023-05-08T09:08:09.799Z,101818.34
2023-05-08T09:10:37.140Z,101825.34
2023-05-08T09:13:05.242Z,101820.81
2023-05-08T09:15:33.375Z,101826.03
2023-05-08T09:18:02.695Z,101824.06
2023-05-08T09:20:30.435Z,101816.78
2023-05-08T09:22:58.011Z,101802.38
2023-05-08T09:25:24.938Z,101807.59
2023-05-08T09:27:51.697Z,101811.09
2023-05-08T09:30:18.534Z,101810.97
2023-05-08T09:32:45.750Z,101803.72
2023-05-08T09:35:13.875Z,101803.66
2023-05-08T09:37:43.341Z,101796.41
2023-05-08T09:40:28.315Z,101800.75
2023-05-08T09:42:55.150Z,101804.25
2023-05-08T09:45:32.725Z,101812.22
2023-05-08T09:47:59.650Z,101803.25
2023-05-08T09:50:27.706Z,101804.09
2023-05-08T09:52:54.757Z,101799.59
2023-05-08T09:55:21.600Z,101803.09
2023-05-08T09:58:00.008Z,101805.66
2023-05-08T10:00:28.670Z,101795.69
2023-05-08T10:03:03.249Z,101795.50
2023-05-08T10:05:32.380Z,101797.19
2023-05-08T10:08:18.429Z,101799.72
2023-05-08T10:10:45.254Z,101803.19
2023-05-08T10:13:12.091Z,101800.34
2023-05-08T10:15:42.514Z,101800.25
2023-05-08T10:18:11.847Z,101805.56
2023-05-08T10:20:46.539Z,101796.50
2023-05-08T10:23:17.503Z,101798.28
2023-05-08T10:25:49.525Z,101807.97
2023-05-08T10:28:28.006Z,101807.00
2023-05-08T10:31:00.847Z,101806.97
2023-05-08T10:33:33.725Z,101808.72
2023-05-08T10:36:01.293Z,101805.94
2023-05-08T10:38:28.393Z,101799.56
2023-05-08T10:40:58.220Z,101798.59
2023-05-08T10:43:25.793Z,101794.88
2023-05-08T10:45:55.621Z,101788.47
2023-05-08T10:48:53.347Z,101788.38
2023-05-08T10:51:47.411Z,101788.31
2023-05-08T10:54:28.066Z,101788.28
2023-05-08T10:57:12.095Z,101798.03
2023-05-08T10:59:39.147Z,101787.22
2023-05-08T11:02:08.189Z,101778.13
2023-05-08T11:04:38.127Z,101786.09
2023-05-08T11:07:05.266Z,101786.88
2023-05-08T11:09:41.143Z,101783.19
2023-05-08T11:12:29.493Z,101775.00
2023-05-08T11:15:07.264Z,101776.66
2023-05-08T11:17:34.457Z,101771.22
2023-05-08T11:20:07.053Z,101765.69
2023-05-08T11:22:35.274Z,101765.56
2023-05-08T11:25:09.610Z,101768.94
2023-05-08T11:27:38.699Z,101761.72
2023-05-08T11:30:38.176Z,101761.53
2023-05-08T11:33:05.135Z,101755.19
2023-05-08T11:36:23.000Z,101758.69
2023-05-08T11:39:12.721Z,101764.00
2023-05-08T11:41:39.602Z,101747.84
2023-05-08T11:44:17.181Z,101754.00
2023-05-08T11:46:51.303Z,101743.97
2023-05-08T11:49:26.064Z,101752.72
2023-05-08T11:51:58.375Z,101748.06
2023-05-08T11:54:29.830Z,101738.91
2023-05-08T11:56:57.429Z,101747.72
2023-05-08T11:59:24.280Z,101741.28
2023-05-08T12:04:21.706Z,101742.78
2023-05-08T12:06:51.227Z,101743.44
2023-05-08T12:09:22.111Z,101753.06
2023-05-08T12:11:57.928Z,101756.44
2023-05-08T12:14:27.288Z,101753.69
2023-05-08T12:16:54.150Z,101753.44
2023-05-08T12:19:21.085Z,101751.38
2023-05-08T12:21:48.992Z,101742.19
2023-05-08T12:24:23.240Z,101755.44
2023-05-08T12:26:54.296Z,101748.00
2023-05-08T12:29:21.205Z,101748.75
2023-05-08T12:31:48.855Z,101751.31
2023-05-08T12:34:16.485Z,101748.47
2023-05-08T12:36:43.267Z,101753.78
2023-05-08T12:39:13.478Z,101739.25
2023-05-08T12:41:51.958Z,101743.50
2023-05-08T12:44:24.360Z,101739.69
2023-05-08T12:46:56.664Z,101744.81
2023-05-08T12:49:31.268Z,101743.63
2023-05-08T12:52:17.955Z,101745.09
2023-05-08T12:54:48.889Z,101751.00
2023-05-08T12:57:18.068Z,101751.59
2023-05-08T12:59:46.288Z,101748.69
2023-05-08T13:02:23.678Z,101735.94
2023-05-08T13:04:55.853Z,101743.81
2023-05-08T13:07:22.834Z,101744.59
2023-05-08T13:10:00.914Z,101744.50
2023-05-08T13:12:27.692Z,101743.50
2023-05-08T13:14:54.677Z,101737.94
2023-05-08T13:17:21.450Z,101735.06
2023-05-08T13:19:48.263Z,101739.38
2023-05-08T13:22:15.113Z,101733.84
2023-05-08T13:24:41.901Z,101721.03
2023-05-08T13:27:09.091Z,101719.94
2023-05-08T13:29:42.481Z,101720.59
2023-05-08T13:32:09.608Z,101716.81
2023-05-08T13:34:41.488Z,101714.81
2023-05-08T13:37:14.369Z,101706.47
2023-05-08T13:39:44.249Z,101708.94
2023-05-08T13:42:11.063Z,101695.16
2023-05-08T13:44:37.840Z,101702.25
2023-05-08T13:47:14.213Z,101693.22
2023-05-08T13:49:41.124Z,101692.22
2023-05-08T13:52:11.302Z,101689.44
2023-05-08T13:54:53.330Z,101683.97
2023-05-08T13:57:30.756Z,101684.66
2023-05-08T13:59:57.906Z,101686.16
2023-05-08T14:02:25.015Z,101679.69
2023-05-08T14:04:54.566Z,101672.34
2023-05-08T14:07:27.148Z,101678.63
2023-05-08T14:09:56.405Z,101678.63
2023-05-08T14:12:23.248Z,101669.63
2023-05-08T14:14:50.544Z,101670.47
2023-05-08T14:17:17.388Z,101669.44
2023-05-08T14:19:44.355Z,101666.69
2023-05-08T14:22:11.430Z,101673.69
2023-05-08T14:24:38.484Z,101672.75
2023-05-08T14:27:06.094Z,101668.25
2023-05-08T14:29:34.236Z,101664.81
2023-05-08T14:32:01.640Z,101674.84
2023-05-08T14:34:28.459Z,101670.47
2023-05-08T14:36:55.258Z,101668.81
2023-05-08T14:39:39.752Z,101664.53
2023-05-08T14:42:22.362Z,101668.34
2023-05-08T14:44:50.127Z,101663.13
2023-05-08T14:47:17.407Z,101673.28
2023-05-08T14:49:44.215Z,101668.06
2023-05-08T14:52:12.926Z,101669.28
2023-05-08T14:54:39.917Z,101662.38
2023-05-08T14:57:26.596Z,101651.78
2023-05-08T15:00:11.872Z,101657.31
2023-05-08T15:05:33.348Z,101648.50
2023-05-08T15:22:39.438Z,101636.88
2023-05-08T15:25:06.976Z,101641.34
2023-05-08T15:27:47.980Z,101635.06
2023-05-08T15:30:15.151Z,101640.41
2023-05-08T15:32:46.829Z,101635.81
2023-05-08T15:35:18.756Z,101633.13
2023-05-08T15:37:45.516Z,101632.97
2023-05-08T15:40:12.722Z,101635.69
2023-05-08T15:42:39.505Z,101625.75
2023-05-08T15:45:06.935Z,101623.09
2023-05-08T15:47:33.780Z,101630.28
2023-05-08T15:50:00.686Z,101628.50
2023-05-08T15:52:27.436Z,101628.50
2023-05-08T15:54:54.191Z,101621.38
2023-05-08T15:57:20.999Z,101624.13
2023-05-08T15:59:47.828Z,101621.47
2023-05-08T16:02:14.707Z,101618.91
2023-05-08T16:04:41.673Z,101616.25
2023-05-08T16:07:08.599Z,101620.84
2023-05-08T16:09:35.362Z,101609.25
2023-05-08T16:12:02.153Z,101616.53
2023-05-08T16:14:28.914Z,101613.94
2023-05-08T16:16:55.693Z,101618.53
2023-05-08T16:19:22.569Z,101613.16
2023-05-08T16:21:49.466Z,101611.34
2023-05-08T16:24:16.310Z,101609.66
2023-05-08T16:26:43.139Z,101606.06
2023-05-08T16:29:12.115Z,101612.31
2023-05-08T16:31:38.945Z,101607.75
2023-05-08T16:34:05.812Z,101607.84
2023-05-08T16:36:32.608Z,101606.94
2023-05-08T16:38:59.392Z,101596.19
2023-05-08T16:41:27.837Z,101604.28
2023-05-08T16:43:54.784Z,101595.38
2023-05-08T16:46:29.953Z,101599.03
2023-05-08T16:48:57.518Z,101599.03
2023-05-08T16:51:24.310Z,101588.34
2023-05-08T16:53:51.099Z,101593.75
2023-05-08T16:56:19.265Z,101594.69
2023-05-08T16:58:46.105Z,101601.84
2023-05-08T17:01:14.008Z,101604.59
2023-05-08T17:03:40.843Z,101600.19
2023-05-08T17:06:08.278Z,101598.50
2023-05-08T17:08:35.319Z,101601.25
2023-05-08T17:11:02.058Z,101591.44
2023-05-08T17:13:29.911Z,101606.78
2023-05-08T17:15:57.665Z,101599.72
2023-05-08T17:18:24.452Z,101602.47
2023-05-08T17:20:51.294Z,101600.84
2023-05-08T17:23:18.308Z,101596.44
2023-05-08T17:25:45.197Z,101593.94
2023-05-08T17:28:12.043Z,101600.31
2023-05-08T17:30:38.870Z,101604.06
2023-05-08T17:33:07.373Z,101605.13
2023-05-08T17:35:34.251Z,101607.94
2023-05-08T17:38:01.253Z,101617.09
2023-05-08T17:40:28.753Z,101611.78
2023-05-08T17:42:55.581Z,101610.06
2023-05-08T17:45:22.386Z,101619.09
2023-05-08T17:47:49.413Z,101610.16
2023-05-08T17:50:16.283Z,101611.16
2023-05-08T17:52:43.166Z,101609.53
2023-05-08T17:55:10.564Z,101611.47
2023-05-08T17:57:37.347Z,101617.88
2023-05-08T18:00:06.095Z,101617.94
2023-05-08T18:02:32.983Z,101610.91
2023-05-08T18:05:00.816Z,101603.72
2023-05-08T18:07:27.626Z,101609.28
2023-05-08T18:09:54.383Z,101613.94
2023-05-08T18:12:21.177Z,101611.34
2023-05-08T18:14:48.519Z,101607.88
2023-05-08T18:17:22.641Z,101606.28
2023-05-08T18:19:49.576Z,101610.94
2023-05-08T18:22:16.440Z,101612.91
2023-05-08T18:24:45.438Z,101620.25
2023-05-08T18:27:12.222Z,101610.53
2023-05-08T18:29:38.969Z,101622.47
2023-05-08T18:32:06.591Z,101614.47
2023-05-08T18:34:36.607Z,101612.78
2023-05-08T18:37:03.678Z,101618.38
2023-05-08T18:39:31.274Z,101615.84
2023-05-08T18:41:58.130Z,101617.75
2023-05-08T18:44:24.994Z,101617.91
2023-05-08T18:46:51.777Z,101623.38
2023-05-08T18:49:18.575Z,101629.81
2023-05-08T18:51:50.755Z,101624.56
2023-05-08T18:54:17.734Z,101627.41
2023-05-08T18:56:44.568Z,101627.56
2023-05-08T18:59:14.117Z,101622.31
2023-05-08T19:01:40.919Z,101625.16
2023-05-08T19:04:07.928Z,101625.25
2023-05-08T19:06:34.730Z,101621.81
2023-05-08T19:09:01.474Z,101621.91
2023-05-08T19:11:28.291Z,101625.66
2023-05-08T19:13:56.265Z,101622.19
2023-05-08T19:16:23.508Z,101624.94
2023-05-08T19:18:51.343Z,101619.69
2023-05-08T19:21:18.355Z,101628.78
2023-05-08T19:23:45.168Z,101635.16
2023-05-08T19:26:11.990Z,101623.59
2023-05-08T19:28:38.825Z,101626.44
2023-05-08T19:31:05.631Z,101625.66
2023-05-08T19:33:32.449Z,101624.81
2023-05-08T19:35:59.788Z,101621.31
2023-05-08T19:38:26.667Z,101619.63
2023-05-08T19:40:57.494Z,101614.31
2023-05-08T19:43:26.251Z,101619.81
2023-05-08T19:45:53.345Z,101628.91
2023-05-08T19:48:20.405Z,101625.44
2023-05-08T19:50:47.413Z,101623.78
2023-05-08T19:53:14.227Z,101629.25
2023-05-08T19:55:42.578Z,101622.19
2023-05-08T19:58:18.899Z,101624.06
2023-05-08T20:00:50.887Z,101625.06
2023-05-08T20:03:18.123Z,101624.28
2023-05-08T20:05:45.048Z,101623.53
2023-05-08T20:08:11.996Z,101625.34
2023-05-08T20:10:38.765Z,101628.09
2023-05-08T20:13:05.630Z,101624.59
2023-05-08T20:15:32.554Z,101632.69
2023-05-08T20:17:59.657Z,101622.91
2023-05-08T20:20:27.191Z,101625.66
2023-05-08T20:22:53.965Z,101627.53
2023-05-08T20:25:20.795Z,101619.53
2023-05-08T20:27:47.621Z,101623.16
2023-05-08T20:30:14.734Z,101612.44
2023-05-08T20:32:41.748Z,101612.53
2023-05-08T20:35:09.117Z,101608.16
2023-05-08T20:37:42.604Z,101607.31
2023-05-08T20:40:13.138Z,101602.03
2023-05-08T20:42:43.221Z,101606.63
2023-05-08T20:45:10.865Z,101604.94
2023-05-08T20:47:37.818Z,101604.16
2023-05-08T20:50:07.973Z,101600.56
2023-05-08T20:52:35.939Z,101601.53
2023-05-08T20:55:05.421Z,101602.56
2023-05-08T20:57:32.185Z,101604.41
2023-05-08T20:59:58.957Z,101608.03
2023-05-08T21:02:25.833Z,101597.44
2023-05-08T21:04:52.841Z,101606.44
2023-05-08T21:07:22.741Z,101605.63
2023-05-08T21:09:49.510Z,101601.25
2023-05-08T21:12:19.405Z,101607.59
2023-05-08T21:14:46.482Z,101597.81
2023-05-08T21:17:13.240Z,101594.28
2023-05-08T21:19:40.054Z,101599.75
2023-05-08T21:22:09.178Z,101599.81
2023-05-08T21:24:42.559Z,101610.63
2023-05-08T21:27:09.370Z,101605.41
2023-05-08T21:29:36.357Z,101600.97
2023-05-08T21:32:03.169Z,101601.06
2023-05-08T21:34:30.060Z,101594.88
2023-05-08T21:36:56.926Z,101599.38
2023-05-08T21:39:23.721Z,101596.78
2023-05-08T21:41:50.495Z,101592.41
2023-05-08T21:44:17.328Z,101589.78
2023-05-08T21:46:44.160Z,101585.34
2023-05-08T21:49:11.190Z,101587.25
2023-05-08T21:51:40.604Z,101577.47
2023-05-08T21:54:08.632Z,101574.88
2023-05-08T21:56:35.463Z,101574.00
2023-05-08T21:59:02.226Z,101572.31
2023-05-08T22:01:29.115Z,101572.41
2023-05-08T22:03:57.431Z,101564.38
2023-05-08T22:06:24.286Z,101564.47
2023-05-08T22:08:51.056Z,101568.97
2023-05-08T22:11:17.824Z,101563.69
2023-05-08T22:13:44.607Z,101558.38
2023-05-08T22:16:11.413Z,101558.41
2023-05-08T22:18:38.216Z,101547.72
2023-05-08T22:21:05.000Z,101554.94
2023-05-08T22:23:34.591Z,101559.47
2023-05-08T22:26:01.511Z,101555.97
2023-05-08T22:28:28.396Z,101548.88
2023-05-08T22:30:55.183Z,101543.56
2023-05-08T22:33:22.082Z,101541.84
2023-05-08T22:35:48.837Z,101540.13
2023-05-08T22:38:15.785Z,101547.31
2023-05-08T22:40:42.639Z,101541.13
2023-05-08T22:43:09.753Z,101538.44
2023-05-08T22:45:37.086Z,101529.59
2023-05-08T22:48:04.322Z,101531.47
2023-05-08T22:50:31.236Z,101534.16
2023-05-08T22:52:58.047Z,101523.50
2023-05-08T22:55:24.865Z,101524.44
2023-05-08T22:57:51.688Z,101531.63
2023-05-08T23:00:18.778Z,101527.19
2023-05-08T23:02:45.737Z,101527.28
2023-05-08T23:05:12.959Z,101529.97
2023-05-08T23:07:40.635Z,101518.44
2023-05-08T23:10:07.931Z,101534.53
2023-05-08T23:12:34.766Z,101531.03
2023-05-08T23:15:01.531Z,101520.38
2023-05-08T23:17:28.360Z,101515.94
2023-05-08T23:19:55.162Z,101513.31
2023-05-08T23:22:21.944Z,101508.03
2023-05-08T23:24:49.072Z,101506.28
2023-05-08T23:27:15.909Z,101514.38
2023-05-08T23:29:42.654Z,101504.63
2023-05-08T23:32:09.387Z,101498.41
2023-05-08T23:34:36.153Z,101499.34
2023-05-08T23:37:03.105Z,101492.28
2023-05-08T23:39:29.905Z,101497.72
2023-05-08T23:41:56.667Z,101492.41
2023-05-08T23:44:23.438Z,101487.97
2023-05-08T23:46:50.253Z,101493.41
2023-05-08T23:49:17.073Z,101484.50
2023-05-08T23:51:43.862Z,101494.38
2023-05-08T23:54:10.705Z,101483.72
2023-05-08T23:56:37.459Z,101484.66
2023-05-08T23:59:04.270Z,101484.72
